Airfield :
LOGIN :

Register | Disclaimer

   EN    FR    IT 

 










Legend :    VFR   Marginal VFR   IFR   Intensive IFR   Very Intensive IFR
Visi :
Ceiling :
>= 8 km
>= 3000ft
5 to 8 km
1000 to 3000 ft
1500m to 5 km
500 to 1000 ft
800 to 1500m
200 to 500 ft
< 800m
< 200 ft
Symbols :   Thunderstorms  Fog  Heavy snow  Heavy precipitations  Wind > 20 kt
SIGMETs :     Misc.  Thunderstorms  Icing  Turbulence  Mountain Waves  Volcanic Ashes






- Airport Elevation : 375 ft
- IATA code : MST


EHBK - Maastricht Aachen

CURRENT METAR :
  • 010755Z AUTO 23009KT 210V270 9999 SCT007 BKN008 OVC009 14/13 Q1010 NOSIG

EXPIRED METARs :
  • 010725Z AUTO 23009KT 200V270 9999 BKN006 OVC008 14/13 Q1010 NOSIG
  • 010655Z AUTO 22010KT 180V250 9999 OVC007 14/13 Q1010 NOSIG
  • 010625Z AUTO 22010KT 180V260 9999 BKN006 OVC007 14/13 Q1010 NOSIG
  • 010555Z AUTO 23010KT 8000 OVC004 13/12 Q1010 NOSIG
  • 010525Z AUTO 23011KT 200V260 9999 OVC006 14/12 Q1010 NOSIG

TAF TAF EHBK
Valid from the 01 at 06:00 until the 02 at 12:00 UTC


010526Z 0106/0212 24007KT 9999 BKN008
BECMG 0107/0110 SCT025
TEMPO 0113/0120 6000 SHRA SCT025CB BKN030
PROB30
TEMPO 0114/0118 27015G25KT 4000 TSRA SCT020CB BKN025
BECMG 0121/0124 4000 BR
PROB30
TEMPO 0200/0206 -RADZ -SHRA BKN008 FEW015TCU
BECMG 0205/0208 9999 NSW
TEMPO 0210/0212 6000 SHRA FEW020CB



MET'MAP, your aeronautical weather chart ! - Copyright ORBIFLY December 2007 - Disclaimer

ORBIFLY MET'MAP TEAM :

Programming & Development : Alexandra Zaïnal
Concept & original design : Baudouin d'Aumeries
Assistance for programming : Marc-Olivier Méhu
Technical & hardware support : Manuel Goepfert

Contact : metmap@orbifly.com




SOURCES & CREDITS :

   NOAA